Terminal Aerodrome Forecast
Issued by NWS

Home | Current Version | Previous Version | Graphics & Text | Print | Product List | Glossary On
Versions: 1 2 3 4 5 6 7 8 9 10 11 12 13 14 15 16 17 18 19 20 21 22 23 24 25
000
FTUS41 KCLE 061100
TAFFDY
TAF
KFDY 061137Z 0612/0712 21005KT P6SM SKC
     FM061700 22012G20KT P6SM SCT030 BKN200
      TEMPO 0619/0622 BKN030
     FM062200 22010KT P6SM BKN060 OVC120
     FM070600 23010KT P6SM OVC018=

USA.gov is the U.S. government's official web portal to all federal, state and local government web resources and services.